Time;durP1;ratioP1;P1;durP2;ratioP2;P2;SDS_P1;SDS_P2;PMS_P1;PMS_P2;Temp;Humidity;BMP_temperature;BMP_pressure;BME280_temperature;BME280_humidity;BME280_pressure;Samples;Min_cycle;Max_cycle;Signal;HPM_P1;HPM_P2
2020/12/02 05:47:11;;;;;;;18.40;9.55;;;;;;;;;;6198946;22;884340;-82
2020/12/02 05:49:43;;;;;;;18.60;10.65;;;;;;;;;;6276727;22;20354;-82
2020/12/02 05:52:14;;;;;;;15.00;9.13;;;;;;;;;;6278749;22;20138;-83
2020/12/02 05:54:41;;;;;;;15.68;9.02;;;;;;;;;;6276654;22;20334;-82
2020/12/02 05:57:07;;;;;;;18.08;9.07;;;;;;;;;;6278496;22;20011;-81
2020/12/02 05:59:33;;;;;;;17.42;10.30;;;;;;;;;;6261074;22;20016;-83
2020/12/02 06:02:01;;;;;;;18.05;9.65;;;;;;;;;;6247791;23;20000;-83
2020/12/02 06:04:27;;;;;;;16.90;9.10;;;;;;;;;;6248942;22;20026;-84
2020/12/02 06:06:54;;;;;;;17.42;9.35;;;;;;;;;;6247787;23;19996;-83
2020/12/02 06:09:21;;;;;;;16.80;9.18;;;;;;;;;;6250649;22;20072;-81
2020/12/02 06:11:47;;;;;;;15.90;8.13;;;;;;;;;;6251188;23;20355;-82
2020/12/02 06:14:29;;;;;;;16.13;9.25;;;;;;;;;;6254436;23;20019;-82
2020/12/02 06:16:55;;;;;;;;;;;;;;;;;;6257055;22;20327;-83
2020/12/02 06:19:27;;;;;;;17.08;9.18;;;;;;;;;;6254005;22;19951;-82
2020/12/02 06:21:54;;;;;;;14.23;7.97;;;;;;;;;;6246544;23;20015;-82
2020/12/02 06:24:41;;;;;;;17.55;9.32;;;;;;;;;;6245110;23;20312;-83
2020/12/02 06:27:16;;;;;;;17.55;9.15;;;;;;;;;;6244396;22;20004;-81
2020/12/02 06:29:42;;;;;;;16.00;9.20;;;;;;;;;;6253873;22;20008;-83
2020/12/02 06:32:15;;;;;;;16.63;9.63;;;;;;;;;;6256716;23;20322;-82
2020/12/02 06:34:42;;;;;;;14.93;9.32;;;;;;;;;;6254647;23;20000;-83
2020/12/02 06:37:13;;;;;;;15.25;8.48;;;;;;;;;;6253606;23;20095;-82
2020/12/02 06:39:44;;;;;;;16.10;8.32;;;;;;;;;;6247962;22;20034;-82
2020/12/02 06:42:36;;;;;;;21.50;11.80;;;;;;;;;;6249186;23;20028;-81
2020/12/02 06:45:07;;;;;;;17.60;9.07;;;;;;;;;;6245128;23;20031;-81
2020/12/02 06:47:35;;;;;;;19.65;10.05;;;;;;;;;;6249492;23;20083;-81
2020/12/02 06:50:04;;;;;;;20.38;8.80;;;;;;;;;;6250394;22;20000;-81
2020/12/02 06:52:32;;;;;;;16.60;9.23;;;;;;;;;;6249571;23;20086;-80
2020/12/02 06:55:09;;;;;;;17.50;8.73;;;;;;;;;;6249108;23;20630;-80
2020/12/02 06:57:35;;;;;;;18.48;9.65;;;;;;;;;;6248730;23;20008;-80
2020/12/02 07:00:02;;;;;;;16.77;9.18;;;;;;;;;;6248710;22;20016;-80
2020/12/02 07:02:37;;;;;;;17.80;9.90;;;;;;;;;;6249087;22;20019;-80
2020/12/02 07:05:09;;;;;;;14.73;8.38;;;;;;;;;;6245905;23;20438;-80
2020/12/02 07:07:35;;;;;;;16.85;10.02;;;;;;;;;;6248124;23;20204;-80
2020/12/02 07:10:00;;;;;;;16.40;8.35;;;;;;;;;;6248346;22;20389;-80
2020/12/02 07:12:28;;;;;;;14.50;9.05;;;;;;;;;;6245679;23;20008;-80
2020/12/02 07:14:58;;;;;;;12.88;8.10;;;;;;;;;;6247778;23;20007;-80
2020/12/02 07:19:45;;;;;;;15.23;8.48;;;;;;;;;;5080948;28;20448;-79
2020/12/02 07:22:31;;;;;;;13.57;8.15;;;;;;;;;;5049999;28;20594;-79
2020/12/02 07:25:01;;;;;;;13.75;8.07;;;;;;;;;;5065836;28;20040;-78
2020/12/02 07:27:27;;;;;;;14.20;8.30;;;;;;;;;;5065707;28;20455;-79
2020/12/02 07:30:19;;;;;;;17.15;9.95;;;;;;;;;;5068989;28;20020;-78
2020/12/02 07:32:45;;;;;;;14.75;8.93;;;;;;;;;;5069578;28;20059;-79
2020/12/02 07:35:16;;;;;;;20.38;11.40;;;;;;;;;;5069884;28;20536;-79
2020/12/02 07:37:42;;;;;;;19.35;11.15;;;;;;;;;;5070296;28;20499;-79
2020/12/02 07:42:36;;;;;;;23.90;12.82;;;;;;;;;;5107327;27;20864;-80
2020/12/02 07:47:21;;;;;;;19.25;10.55;;;;;;;;;;5089669;28;20878;-78
2020/12/02 07:50:16;;;;;;;18.08;10.32;;;;;;;;;;5099144;28;20021;-79
2020/12/02 07:52:43;;;;;;;23.67;12.60;;;;;;;;;;5061015;28;20047;-79
2020/12/02 07:55:14;;;;;;;28.10;14.13;;;;;;;;;;5083136;28;20056;-78
2020/12/02 07:57:40;;;;;;;22.88;12.55;;;;;;;;;;5103629;22;20033;-81
2020/12/02 08:00:25;;;;;;;21.10;11.82;;;;;;;;;;5071260;28;20051;-80
2020/12/02 08:02:53;;;;;;;19.58;11.05;;;;;;;;;;5069664;28;20021;-80
2020/12/02 08:05:32;;;;;;;30.80;15.38;;;;;;;;;;5063021;28;20068;-81
2020/12/02 08:07:59;;;;;;;28.40;15.13;;;;;;;;;;5074679;28;20020;-81
2020/12/02 08:10:26;;;;;;;42.63;22.42;;;;;;;;;;5084916;28;20024;-80
2020/12/02 08:12:52;;;;;;;28.25;16.13;;;;;;;;;;5100083;28;20066;-80
2020/12/02 08:15:18;;;;;;;29.70;15.35;;;;;;;;;;5088313;28;20028;-81
2020/12/02 08:20:20;;;;;;;28.13;15.95;;;;;;;;;;5106495;28;20412;-81
2020/12/02 08:22:48;;;;;;;20.27;11.95;;;;;;;;;;5100518;28;20057;-82
2020/12/02 08:25:19;;;;;;;27.48;14.40;;;;;;;;;;5104443;28;20024;-81
2020/12/02 08:27:46;;;;;;;27.08;13.07;;;;;;;;;;5100504;28;20019;-82
2020/12/02 08:30:16;;;;;;;24.38;12.20;;;;;;;;;;5100926;28;20036;-82
2020/12/02 08:32:46;;;;;;;23.83;13.45;;;;;;;;;;5087549;28;20058;-82
2020/12/02 08:35:19;;;;;;;21.10;11.63;;;;;;;;;;5099880;28;20020;-81
2020/12/02 08:37:51;;;;;;;20.85;12.18;;;;;;;;;;5098272;28;20020;-80
2020/12/02 08:40:36;;;;;;;22.70;12.73;;;;;;;;;;5102741;28;20023;-81
2020/12/02 08:43:21;;;;;;;21.92;12.35;;;;;;;;;;5094315;28;20050;-81
2020/12/02 08:45:54;;;;;;;32.00;20.67;;;;;;;;;;5102902;28;20016;-80
2020/12/02 08:48:21;;;;;;;25.23;15.52;;;;;;;;;;5102436;28;20035;-80
2020/12/02 08:50:47;;;;;;;25.95;15.18;;;;;;;;;;5096125;28;20074;-80
2020/12/02 08:53:13;;;;;;;20.30;11.88;;;;;;;;;;5095518;28;20033;-80
2020/12/02 08:55:40;;;;;;;22.65;12.20;;;;;;;;;;5108427;28;20063;-80
2020/12/02 08:58:06;;;;;;;20.58;12.38;;;;;;;;;;5099653;28;20028;-81
2020/12/02 09:00:32;;;;;;;22.45;13.32;;;;;;;;;;5087483;28;20028;-80
2020/12/02 09:02:58;;;;;;;23.80;12.40;;;;;;;;;;5100741;28;20122;-80
2020/12/02 09:05:24;;;;;;;18.23;10.45;;;;;;;;;;5097559;28;20047;-80
2020/12/02 09:07:51;;;;;;;21.85;12.43;;;;;;;;;;5094775;28;20021;-80
2020/12/02 09:10:17;;;;;;;20.05;12.27;;;;;;;;;;5100120;28;20017;-79
2020/12/02 09:12:43;;;;;;;19.50;10.43;;;;;;;;;;5101108;28;20031;-80
2020/12/02 09:15:09;;;;;;;19.67;11.10;;;;;;;;;;5096699;28;20024;-80
2020/12/02 09:17:35;;;;;;;24.10;14.30;;;;;;;;;;5089248;28;20019;-80
2020/12/02 09:20:00;;;;;;;24.02;14.55;;;;;;;;;;5091108;28;20070;-80
2020/12/02 09:22:26;;;;;;;26.65;15.07;;;;;;;;;;5096917;28;20500;-80
2020/12/02 09:24:52;;;;;;;20.98;13.23;;;;;;;;;;5094911;28;20566;-81
2020/12/02 09:27:18;;;;;;;24.48;14.20;;;;;;;;;;5093855;28;20024;-81
2020/12/02 09:29:45;;;;;;;31.38;20.30;;;;;;;;;;5096503;28;20056;-80
2020/12/02 09:32:11;;;;;;;26.85;17.67;;;;;;;;;;5079386;28;20029;-80
2020/12/02 09:34:37;;;;;;;25.75;15.15;;;;;;;;;;5088280;28;20024;-81
2020/12/02 09:37:06;;;;;;;23.05;13.18;;;;;;;;;;5083684;28;20024;-81
2020/12/02 09:39:33;;;;;;;24.30;14.43;;;;;;;;;;5071981;28;20020;-80
2020/12/02 09:42:08;;;;;;;21.67;12.60;;;;;;;;;;5080589;28;20028;-81
2020/12/02 09:44:37;;;;;;;19.88;11.98;;;;;;;;;;5082839;28;20012;-80
2020/12/02 09:47:10;;;;;;;21.90;12.43;;;;;;;;;;5087789;28;20020;-80
2020/12/02 09:49:37;;;;;;;22.13;11.65;;;;;;;;;;5086830;28;20024;-81
2020/12/02 09:52:09;;;;;;;25.15;12.05;;;;;;;;;;5087914;28;20028;-80
2020/12/02 09:54:39;;;;;;;20.23;10.90;;;;;;;;;;5080974;28;20503;-80
2020/12/02 09:57:13;;;;;;;19.50;10.50;;;;;;;;;;5086951;28;20024;-81
2020/12/02 09:59:39;;;;;;;19.08;10.52;;;;;;;;;;5079403;28;20119;-80
2020/12/02 10:02:11;;;;;;;18.55;10.63;;;;;;;;;;5064480;28;20040;-81
2020/12/02 10:05:00;;;;;;;17.25;9.43;;;;;;;;;;5069233;28;20032;-81
2020/12/02 10:07:35;;;;;;;21.70;11.45;;;;;;;;;;5075166;28;20058;-80
2020/12/02 10:10:22;;;;;;;18.55;11.40;;;;;;;;;;5078189;28;20024;-81
2020/12/02 10:12:47;;;;;;;20.98;12.23;;;;;;;;;;5083715;28;20388;-81
2020/12/02 10:15:23;;;;;;;22.52;12.00;;;;;;;;;;5086113;28;20028;-81
2020/12/02 10:17:52;;;;;;;22.33;12.63;;;;;;;;;;5080270;28;20020;-81
2020/12/02 10:20:23;;;;;;;20.08;11.10;;;;;;;;;;5079705;28;20423;-81
2020/12/02 10:22:59;;;;;;;21.40;12.00;;;;;;;;;;5087003;28;20028;-80
2020/12/02 10:25:31;;;;;;;18.42;10.35;;;;;;;;;;5082371;28;20052;-80
2020/12/02 10:28:06;;;;;;;19.60;11.20;;;;;;;;;;5085613;28;20024;-81
2020/12/02 10:30:35;;;;;;;18.20;11.02;;;;;;;;;;5078910;28;20388;-81
2020/12/02 10:33:14;;;;;;;28.85;19.77;;;;;;;;;;5087547;28;20039;-80
2020/12/02 10:35:41;;;;;;;24.05;17.27;;;;;;;;;;5078547;28;20465;-80
2020/12/02 10:38:13;;;;;;;24.52;16.20;;;;;;;;;;5092072;28;20084;-80
2020/12/02 10:40:41;;;;;;;21.63;15.05;;;;;;;;;;5083646;28;20107;-80
2020/12/02 10:43:29;;;;;;;20.35;13.32;;;;;;;;;;5077498;28;20025;-81
2020/12/02 10:48:32;;;;;;;25.02;11.38;;;;;;;;;;5114876;27;20386;-81
2020/12/02 10:50:59;;;;;;;17.95;10.70;;;;;;;;;;5120992;28;20028;-80
2020/12/02 10:53:26;;;;;;;19.52;11.70;;;;;;;;;;5104251;28;20024;-81
2020/12/02 10:55:52;;;;;;;20.63;11.05;;;;;;;;;;5111537;28;20035;-80
2020/12/02 10:58:21;;;;;;;21.65;14.30;;;;;;;;;;5104448;28;20020;-80
2020/12/02 11:00:52;;;;;;;18.63;11.38;;;;;;;;;;5106005;28;20031;-80
2020/12/02 11:03:38;;;;;;;18.17;11.20;;;;;;;;;;5098977;28;20024;-79
2020/12/02 11:06:10;;;;;;;20.05;11.20;;;;;;;;;;5086258;28;20520;-79
2020/12/02 11:08:36;;;;;;;17.63;10.95;;;;;;;;;;5089797;28;20080;-79
2020/12/02 11:11:17;;;;;;;19.50;10.40;;;;;;;;;;5077682;28;20119;-79
2020/12/02 11:13:52;;;;;;;31.08;18.02;;;;;;;;;;5095063;28;20472;-79
2020/12/02 11:16:44;;;;;;;20.73;12.70;;;;;;;;;;5099848;28;20070;-78
2020/12/02 11:21:41;;;;;;;25.10;11.55;;;;;;;;;;5125417;27;20342;-82
2020/12/02 11:24:19;;;;;;;21.17;11.13;;;;;;;;;;5088402;28;20384;-83
2020/12/02 11:26:45;;;;;;;18.15;11.20;;;;;;;;;;5100800;28;20025;-83
2020/12/02 11:29:12;;;;;;;16.02;10.35;;;;;;;;;;5087824;28;20026;-83
2020/12/02 11:31:49;;;;;;;18.65;10.27;;;;;;;;;;5088521;28;20034;-83
2020/12/02 11:34:24;;;;;;;16.35;9.65;;;;;;;;;;5094094;28;20016;-83
2020/12/02 11:36:56;;;;;;;17.25;10.18;;;;;;;;;;5092332;28;20020;-83
2020/12/02 11:39:38;;;;;;;17.45;10.07;;;;;;;;;;5107413;28;20028;-83
2020/12/02 11:44:29;;;;;;;15.93;9.50;;;;;;;;;;5110546;27;20423;-80
2020/12/02 11:47:01;;;;;;;19.33;11.07;;;;;;;;;;5107842;28;20055;-81
2020/12/02 11:49:35;;;;;;;18.15;10.65;;;;;;;;;;5085643;28;20040;-80
2020/12/02 11:52:21;;;;;;;16.35;9.43;;;;;;;;;;5085896;28;20024;-81
2020/12/02 11:54:47;;;;;;;17.30;9.48;;;;;;;;;;5076816;28;20039;-79
2020/12/02 11:59:34;;;;;;;15.55;9.43;;;;;;;;;;5127853;27;20362;-80
2020/12/02 12:02:19;;;;;;;15.10;8.45;;;;;;;;;;5128576;28;20540;-80
2020/12/02 12:04:52;;;;;;;14.45;8.98;;;;;;;;;;5123437;28;20222;-80
2020/12/02 12:07:25;;;;;;;16.40;9.45;;;;;;;;;;5126986;28;20039;-80
2020/12/02 12:09:51;;;;;;;15.98;9.10;;;;;;;;;;5128486;28;20022;-80
2020/12/02 12:12:29;;;;;;;19.02;11.65;;;;;;;;;;5130993;27;20047;-80
2020/12/02 12:15:01;;;;;;;19.08;10.80;;;;;;;;;;5110143;28;20045;-80
2020/12/02 12:17:32;;;;;;;16.42;9.00;;;;;;;;;;5114000;28;20027;-79
2020/12/02 12:20:13;;;;;;;16.20;9.73;;;;;;;;;;5109620;28;20030;-80
2020/12/02 12:22:44;;;;;;;18.08;8.95;;;;;;;;;;5127077;27;20027;-80
2020/12/02 12:25:10;;;;;;;;;;;;;;;;;;5126351;28;20787;-80
2020/12/02 12:27:36;;;;;;;15.98;9.13;;;;;;;;;;5122874;28;20007;-79
2020/12/02 12:30:04;;;;;;;16.48;9.73;;;;;;;;;;5125652;28;20095;-80
2020/12/02 12:32:54;;;;;;;16.15;9.38;;;;;;;;;;5114118;28;20023;-80
2020/12/02 12:35:22;;;;;;;14.90;9.63;;;;;;;;;;5099764;28;20118;-79
2020/12/02 12:38:01;;;;;;;15.18;9.45;;;;;;;;;;5123652;28;20403;-80
2020/12/02 12:40:34;;;;;;;14.60;8.95;;;;;;;;;;5112987;28;20019;-80
2020/12/02 12:43:02;;;;;;;13.38;8.07;;;;;;;;;;5124519;28;20030;-80
2020/12/02 12:45:37;;;;;;;16.33;8.98;;;;;;;;;;5109916;28;20102;-80
2020/12/02 12:48:05;;;;;;;16.73;9.90;;;;;;;;;;5123650;27;20488;-80
2020/12/02 12:50:32;;;;;;;14.90;8.70;;;;;;;;;;5127178;27;20479;-80
2020/12/02 12:53:08;;;;;;;14.48;8.68;;;;;;;;;;5123916;27;20042;-80
2020/12/02 12:55:34;;;;;;;14.82;8.82;;;;;;;;;;5131466;27;20368;-80
2020/12/02 12:58:17;;;;;;;15.80;8.77;;;;;;;;;;5106606;27;20037;-80
2020/12/02 13:00:45;;;;;;;17.35;9.10;;;;;;;;;;5107175;28;20189;-80
2020/12/02 13:03:13;;;;;;;16.55;9.85;;;;;;;;;;5124965;28;20707;-80
2020/12/02 13:05:45;;;;;;;14.52;8.38;;;;;;;;;;5125059;27;20020;-79
2020/12/02 13:08:16;;;;;;;17.75;9.65;;;;;;;;;;5120975;28;20070;-80
2020/12/02 13:10:58;;;;;;;16.08;9.40;;;;;;;;;;5109789;28;20024;-80
2020/12/02 13:13:27;;;;;;;14.63;8.05;;;;;;;;;;5097473;28;20039;-80
2020/12/02 13:15:53;;;;;;;14.10;8.73;;;;;;;;;;5094722;28;20426;-80
2020/12/02 13:18:40;;;;;;;17.85;10.13;;;;;;;;;;5110706;28;20028;-80
2020/12/02 13:21:11;;;;;;;12.80;7.53;;;;;;;;;;5097898;28;20040;-80
2020/12/02 13:23:38;;;;;;;16.90;9.13;;;;;;;;;;5113424;27;20020;-80
2020/12/02 13:26:10;;;;;;;24.50;11.70;;;;;;;;;;5109899;28;20043;-80
2020/12/02 13:28:39;;;;;;;19.52;11.27;;;;;;;;;;5092615;28;20030;-80
2020/12/02 13:33:27;;;;;;;18.05;11.18;;;;;;;;;;5112724;27;20351;-81
2020/12/02 13:38:14;;;;;;;15.05;9.55;;;;;;;;;;5109986;27;20348;-81
2020/12/02 13:40:40;;;;;;;15.25;7.88;;;;;;;;;;5091490;28;20363;-81
2020/12/02 13:43:06;;;;;;;31.10;14.82;;;;;;;;;;5101933;28;20032;-81
2020/12/02 13:45:33;;;;;;;36.65;17.75;;;;;;;;;;5093172;28;20024;-81
2020/12/02 13:48:04;;;;;;;23.70;12.45;;;;;;;;;;5083241;28;20016;-82
2020/12/02 13:50:31;;;;;;;28.77;13.55;;;;;;;;;;5099506;28;20080;-81
2020/12/02 13:53:13;;;;;;;20.13;11.38;;;;;;;;;;5095344;28;20031;-81
2020/12/02 13:55:39;;;;;;;;;;;;;;;;;;5090304;28;20549;-81
2020/12/02 13:58:16;;;;;;;12.98;8.20;;;;;;;;;;5091905;28;19908;-81
2020/12/02 14:00:42;;;;;;;12.75;7.53;;;;;;;;;;5078673;28;20031;-82
2020/12/02 14:03:12;;;;;;;15.70;9.25;;;;;;;;;;5085483;28;20028;-81
2020/12/02 14:05:57;;;;;;;17.08;9.20;;;;;;;;;;5081914;28;20047;-82
2020/12/02 14:10:41;;;;;;;15.68;7.95;;;;;;;;;;5091988;27;20442;-79
2020/12/02 14:13:09;;;;;;;15.90;8.60;;;;;;;;;;5088449;28;20566;-80
2020/12/02 14:15:36;;;;;;;13.57;7.93;;;;;;;;;;5070796;28;20116;-80
2020/12/02 14:18:02;;;;;;;11.82;7.38;;;;;;;;;;5076034;28;20570;-80
2020/12/02 14:20:28;;;;;;;13.57;7.60;;;;;;;;;;5069332;28;20066;-80
2020/12/02 14:22:58;;;;;;;13.15;7.90;;;;;;;;;;5073225;28;20031;-80
2020/12/02 14:25:24;;;;;;;12.82;7.78;;;;;;;;;;5073540;28;20039;-80
2020/12/02 14:27:52;;;;;;;12.93;7.50;;;;;;;;;;5071602;28;20448;-81
2020/12/02 14:30:20;;;;;;;12.27;7.38;;;;;;;;;;5074486;28;20032;-80
2020/12/02 14:32:46;;;;;;;12.52;6.85;;;;;;;;;;5071827;28;20027;-80
2020/12/02 14:35:13;;;;;;;12.18;7.15;;;;;;;;;;5071029;28;20039;-80
2020/12/02 14:37:39;;;;;;;12.20;6.50;;;;;;;;;;5092555;28;20029;-80
2020/12/02 14:40:06;;;;;;;14.77;7.90;;;;;;;;;;5072976;28;20116;-80
2020/12/02 14:42:32;;;;;;;13.50;7.93;;;;;;;;;;5066097;28;20037;-80
2020/12/02 14:44:58;;;;;;;12.82;7.65;;;;;;;;;;5071610;28;20098;-80
2020/12/02 14:47:25;;;;;;;10.88;6.50;;;;;;;;;;5065685;28;20029;-79
2020/12/02 14:49:50;;;;;;;13.88;8.70;;;;;;;;;;5098666;28;20101;-80
2020/12/02 14:52:17;;;;;;;19.50;10.77;;;;;;;;;;5074839;28;20133;-80
2020/12/02 14:54:43;;;;;;;19.00;10.40;;;;;;;;;;5093970;28;20036;-80
2020/12/02 14:57:15;;;;;;;16.65;9.43;;;;;;;;;;5096346;28;20020;-80
2020/12/02 15:01:59;;;;;;;14.20;8.20;;;;;;;;;;5119663;27;20415;-79
2020/12/02 15:04:27;;;;;;;11.85;7.25;;;;;;;;;;5112993;28;20200;-79
2020/12/02 15:07:09;;;;;;;13.90;8.02;;;;;;;;;;5118203;28;20123;-80
2020/12/02 15:09:51;;;;;;;14.68;8.48;;;;;;;;;;5100796;28;20135;-79
2020/12/02 15:12:18;;;;;;;11.77;7.50;;;;;;;;;;5087058;28;20071;-79
2020/12/02 15:14:44;;;;;;;14.20;7.78;;;;;;;;;;5091454;28;20028;-79
2020/12/02 15:17:13;;;;;;;14.93;8.35;;;;;;;;;;5091698;28;20024;-79
2020/12/02 15:19:40;;;;;;;11.57;7.07;;;;;;;;;;5094044;28;20020;-79
2020/12/02 15:22:07;;;;;;;12.57;8.35;;;;;;;;;;5087758;28;20044;-79
2020/12/02 15:24:34;;;;;;;27.20;12.30;;;;;;;;;;5087528;28;20065;-80
2020/12/02 15:27:19;;;;;;;18.17;10.27;;;;;;;;;;5103643;28;20019;-79
2020/12/02 15:29:46;;;;;;;15.25;9.57;;;;;;;;;;5102845;28;20024;-79
2020/12/02 15:32:14;;;;;;;15.60;9.98;;;;;;;;;;5094718;28;20058;-79
2020/12/02 15:34:40;;;;;;;14.73;9.13;;;;;;;;;;5093489;28;20024;-79
2020/12/02 15:37:11;;;;;;;15.70;9.55;;;;;;;;;;5090093;28;20063;-79
2020/12/02 15:39:48;;;;;;;18.92;12.05;;;;;;;;;;5085054;28;20016;-78
2020/12/02 15:42:29;;;;;;;32.22;15.57;;;;;;;;;;5086564;28;20028;-80
2020/12/02 15:45:19;;;;;;;31.73;16.83;;;;;;;;;;5090518;28;20092;-80
2020/12/02 15:47:48;;;;;;;22.95;12.52;;;;;;;;;;5089096;28;20770;-80
2020/12/02 15:50:25;;;;;;;20.30;12.00;;;;;;;;;;5094512;28;20488;-80
2020/12/02 15:53:10;;;;;;;15.65;9.45;;;;;;;;;;5090174;28;20457;-80
2020/12/02 15:55:54;;;;;;;17.27;9.70;;;;;;;;;;5095526;28;20191;-80
2020/12/02 15:58:23;;;;;;;20.92;10.48;;;;;;;;;;5089391;28;20466;-80
2020/12/02 16:00:50;;;;;;;13.75;8.27;;;;;;;;;;5079738;28;20047;-79
2020/12/02 16:03:18;;;;;;;14.63;8.55;;;;;;;;;;5101328;28;20173;-80
2020/12/02 16:05:44;;;;;;;14.45;8.45;;;;;;;;;;5095218;28;20047;-79
2020/12/02 16:08:34;;;;;;;15.30;8.88;;;;;;;;;;5095410;28;20021;-80
2020/12/02 16:13:18;;;;;;;16.13;9.65;;;;;;;;;;5117148;27;20424;-79
2020/12/02 16:15:45;;;;;;;18.25;10.50;;;;;;;;;;5112023;28;20055;-80
2020/12/02 16:18:11;;;;;;;17.33;9.68;;;;;;;;;;5111940;28;20490;-79
2020/12/02 16:20:37;;;;;;;16.80;9.85;;;;;;;;;;5108448;28;20031;-79
2020/12/02 16:23:14;;;;;;;17.13;9.80;;;;;;;;;;5109713;28;20393;-79
2020/12/02 16:25:42;;;;;;;16.70;9.70;;;;;;;;;;5106264;28;20020;-80
2020/12/02 16:28:08;;;;;;;17.58;9.93;;;;;;;;;;5104017;28;20036;-80
2020/12/02 16:30:35;;;;;;;18.60;9.95;;;;;;;;;;5105806;28;20365;-80
2020/12/02 16:33:04;;;;;;;15.88;9.57;;;;;;;;;;5105151;28;20028;-81
2020/12/02 16:35:30;;;;;;;20.50;11.48;;;;;;;;;;5100649;28;20072;-81
2020/12/02 16:37:58;;;;;;;19.70;10.32;;;;;;;;;;5099790;28;20093;-80
2020/12/02 16:40:24;;;;;;;26.08;12.00;;;;;;;;;;5100989;28;20048;-80
2020/12/02 16:43:09;;;;;;;16.90;9.13;;;;;;;;;;5103018;28;20078;-80
2020/12/02 16:45:43;;;;;;;18.55;10.38;;;;;;;;;;5101611;28;20028;-80
2020/12/02 16:48:24;;;;;;;16.02;9.77;;;;;;;;;;5096370;28;20101;-80
2020/12/02 16:51:00;;;;;;;16.80;9.35;;;;;;;;;;5102023;28;20016;-80
2020/12/02 16:53:38;;;;;;;27.38;13.90;;;;;;;;;;5117916;28;20034;-80
2020/12/02 16:56:11;;;;;;;24.08;11.98;;;;;;;;;;5112764;28;20021;-80
2020/12/02 16:58:39;;;;;;;18.30;10.80;;;;;;;;;;5100984;28;20024;-80
2020/12/02 17:03:27;;;;;;;18.92;11.73;;;;;;;;;;5087532;27;20925;-79
2020/12/02 17:05:54;;;;;;;23.75;12.70;;;;;;;;;;5061866;28;20102;-79
2020/12/02 17:08:21;;;;;;;25.40;13.07;;;;;;;;;;5059850;28;20628;-79
2020/12/02 17:10:47;;;;;;;24.73;13.48;;;;;;;;;;5080224;28;20044;-79
2020/12/02 17:13:22;;;;;;;19.40;11.60;;;;;;;;;;5082473;28;20424;-79
2020/12/02 17:16:07;;;;;;;20.60;11.23;;;;;;;;;;5053885;28;20020;-79
2020/12/02 17:18:51;;;;;;;17.30;9.65;;;;;;;;;;5070903;28;20017;-79
2020/12/02 17:21:36;;;;;;;25.02;13.80;;;;;;;;;;5069756;28;20032;-79
2020/12/02 17:24:08;;;;;;;21.35;11.25;;;;;;;;;;5056686;28;20055;-79
2020/12/02 17:26:43;;;;;;;18.50;10.82;;;;;;;;;;5082940;28;20028;-79
2020/12/02 17:29:09;;;;;;;19.83;11.10;;;;;;;;;;5052116;28;20029;-79
2020/12/02 17:31:55;;;;;;;18.80;9.73;;;;;;;;;;5057309;28;20044;-80
2020/12/02 17:34:33;;;;;;;16.35;9.00;;;;;;;;;;5042198;28;20025;-80
2020/12/02 17:37:06;;;;;;;17.33;9.40;;;;;;;;;;5073680;28;20062;-80
2020/12/02 17:39:44;;;;;;;16.13;10.35;;;;;;;;;;5053950;28;20036;-79
2020/12/02 17:42:13;;;;;;;20.48;11.02;;;;;;;;;;5051271;28;20041;-79
2020/12/02 17:47:01;;;;;;;18.45;10.80;;;;;;;;;;5079726;28;20372;-79
2020/12/02 17:49:34;;;;;;;17.67;9.97;;;;;;;;;;5060046;28;20021;-80
2020/12/02 17:52:12;;;;;;;24.90;12.70;;;;;;;;;;5055920;28;21357;-79
2020/12/02 17:54:43;;;;;;;29.92;14.98;;;;;;;;;;5061138;28;20025;-79
2020/12/02 17:57:11;;;;;;;26.43;13.80;;;;;;;;;;5060654;28;20500;-79
2020/12/02 17:59:37;;;;;;;31.15;15.60;;;;;;;;;;5055358;28;20055;-79
2020/12/02 18:02:03;;;;;;;47.03;23.48;;;;;;;;;;5069161;28;20032;-80
2020/12/02 18:04:29;;;;;;;27.00;15.77;;;;;;;;;;5057631;28;20037;-79
2020/12/02 18:07:08;;;;;;;25.52;12.60;;;;;;;;;;5059991;28;20021;-79
2020/12/02 18:09:51;;;;;;;19.10;9.95;;;;;;;;;;5060828;28;20020;-79
2020/12/02 18:12:22;;;;;;;18.23;10.27;;;;;;;;;;5075872;28;20096;-79
2020/12/02 18:14:56;;;;;;;16.52;9.75;;;;;;;;;;5057029;28;20033;-79
2020/12/02 18:17:43;;;;;;;21.02;11.38;;;;;;;;;;5067695;28;20017;-79
2020/12/02 18:20:28;;;;;;;17.35;10.18;;;;;;;;;;5076825;28;20039;-79
2020/12/02 18:23:13;;;;;;;21.92;10.82;;;;;;;;;;5051291;28;20100;-79
2020/12/02 18:25:48;;;;;;;15.93;8.98;;;;;;;;;;5068973;28;20027;-79
2020/12/02 18:28:38;;;;;;;12.70;8.10;;;;;;;;;;5061950;28;20020;-79
2020/12/02 18:31:23;;;;;;;16.25;9.02;;;;;;;;;;5047775;28;20025;-79
2020/12/02 18:36:11;;;;;;;18.17;10.65;;;;;;;;;;5077882;27;20372;-79
2020/12/02 18:38:40;;;;;;;17.55;9.88;;;;;;;;;;5093788;28;20473;-79
2020/12/02 18:41:20;;;;;;;18.33;10.32;;;;;;;;;;5074069;28;20032;-78
2020/12/02 18:43:52;;;;;;;16.33;9.57;;;;;;;;;;5079278;28;20029;-79
2020/12/02 18:46:30;;;;;;;19.45;11.10;;;;;;;;;;5065844;28;20031;-79
2020/12/02 18:49:15;;;;;;;22.80;12.75;;;;;;;;;;5064409;28;20097;-79
2020/12/02 18:51:42;;;;;;;23.15;14.13;;;;;;;;;;5071644;28;20036;-79
2020/12/02 18:54:08;;;;;;;28.63;14.90;;;;;;;;;;5076356;28;20032;-78
2020/12/02 18:56:34;;;;;;;28.73;15.60;;;;;;;;;;5074105;28;20052;-78
2020/12/02 18:59:26;;;;;;;24.00;13.73;;;;;;;;;;5073775;28;20029;-77
2020/12/02 19:01:53;;;;;;;27.38;14.10;;;;;;;;;;5077764;28;20059;-79
2020/12/02 19:04:19;;;;;;;25.63;13.32;;;;;;;;;;5080476;28;20053;-79
2020/12/02 19:06:50;;;;;;;21.92;12.45;;;;;;;;;;5083116;28;20029;-78
2020/12/02 19:09:16;;;;;;;27.85;12.75;;;;;;;;;;5068847;28;20029;-79
2020/12/02 19:11:44;;;;;;;19.17;10.90;;;;;;;;;;5069934;28;20398;-79
2020/12/02 19:14:17;;;;;;;19.75;10.38;;;;;;;;;;5074807;28;20079;-79
2020/12/02 19:17:02;;;;;;;16.63;8.50;;;;;;;;;;5079810;28;20568;-80
2020/12/02 19:19:28;;;;;;;18.33;9.88;;;;;;;;;;5068318;28;20147;-79
2020/12/02 19:21:59;;;;;;;15.65;8.63;;;;;;;;;;5072300;28;20118;-79
2020/12/02 19:25:04;;;;;;;27.48;14.13;;;;;;;;;;5070116;28;20384;-79
2020/12/02 19:30:04;;;;;;;30.55;17.00;;;;;;;;;;5060781;28;20370;-79
2020/12/02 19:32:30;;;;;;;31.27;17.23;;;;;;;;;;5077356;28;20032;-79
2020/12/02 19:34:56;;;;;;;39.22;19.35;;;;;;;;;;5061502;28;20729;-79
2020/12/02 19:37:31;;;;;;;31.63;18.35;;;;;;;;;;5062736;28;20028;-79
2020/12/02 19:40:16;;;;;;;31.88;18.85;;;;;;;;;;5044532;28;20509;-79
2020/12/02 19:42:59;;;;;;;27.02;16.10;;;;;;;;;;5043437;28;20048;-78
2020/12/02 19:45:36;;;;;;;24.50;13.18;;;;;;;;;;5048222;28;20033;-79
2020/12/02 19:48:20;;;;;;;22.60;12.50;;;;;;;;;;5041650;28;20094;-79
2020/12/02 19:50:56;;;;;;;21.95;12.07;;;;;;;;;;5043172;28;20072;-79
2020/12/02 19:53:27;;;;;;;29.77;15.63;;;;;;;;;;5049359;28;20021;-79
2020/12/02 19:55:59;;;;;;;19.45;11.20;;;;;;;;;;5047411;28;20025;-79
2020/12/02 19:58:30;;;;;;;19.38;10.65;;;;;;;;;;5050630;28;20033;-79
2020/12/02 20:00:57;;;;;;;21.17;11.07;;;;;;;;;;5047132;28;20099;-79
2020/12/02 20:03:41;;;;;;;16.92;9.00;;;;;;;;;;5045295;28;20057;-79
2020/12/02 20:06:10;;;;;;;18.95;9.77;;;;;;;;;;5046629;28;20021;-80
2020/12/02 20:08:53;;;;;;;15.57;8.07;;;;;;;;;;5046222;28;20039;-79
2020/12/02 20:11:24;;;;;;;15.85;7.50;;;;;;;;;;5051039;28;20032;-79
2020/12/02 20:14:07;;;;;;;17.92;9.35;;;;;;;;;;5044487;28;20813;-79
2020/12/02 20:16:57;;;;;;;23.80;13.23;;;;;;;;;;5049801;28;20052;-79
2020/12/02 20:19:43;;;;;;;29.10;16.00;;;;;;;;;;5069102;28;20026;-79
2020/12/02 20:22:09;;;;;;;18.85;11.45;;;;;;;;;;5051314;28;20033;-79
2020/12/02 20:24:56;;;;;;;19.10;10.50;;;;;;;;;;5053781;28;20025;-79
2020/12/02 20:27:41;;;;;;;17.77;9.40;;;;;;;;;;5050573;28;20025;-79
2020/12/02 20:30:12;;;;;;;18.50;9.10;;;;;;;;;;5046107;28;20052;-79
2020/12/02 20:32:43;;;;;;;13.10;7.70;;;;;;;;;;5041716;28;20100;-79
2020/12/02 20:35:11;;;;;;;19.38;10.45;;;;;;;;;;5050407;28;20553;-79
2020/12/02 20:37:40;;;;;;;19.02;9.38;;;;;;;;;;5049671;28;20025;-79
2020/12/02 20:40:07;;;;;;;15.75;8.93;;;;;;;;;;5041016;28;20033;-79
2020/12/02 20:42:33;;;;;;;18.45;9.50;;;;;;;;;;5030268;28;20041;-79
2020/12/02 20:44:59;;;;;;;21.10;10.98;;;;;;;;;;5029410;28;20033;-79
2020/12/02 20:47:25;;;;;;;17.92;9.52;;;;;;;;;;5029890;28;20079;-79
2020/12/02 20:49:51;;;;;;;16.50;9.38;;;;;;;;;;5032074;28;20156;-80
2020/12/02 20:52:19;;;;;;;18.25;9.73;;;;;;;;;;5032637;28;20606;-80
2020/12/02 20:54:46;;;;;;;18.08;8.77;;;;;;;;;;5051296;28;20057;-79
2020/12/02 20:57:16;;;;;;;17.88;10.57;;;;;;;;;;5028813;28;20049;-79
2020/12/02 20:59:56;;;;;;;19.30;8.95;;;;;;;;;;5031551;28;20037;-79
2020/12/02 21:04:42;;;;;;;18.98;10.05;;;;;;;;;;5130582;27;20341;-80
2020/12/02 21:07:08;;;;;;;18.40;9.57;;;;;;;;;;5126511;28;20027;-79
2020/12/02 21:09:34;;;;;;;16.85;9.00;;;;;;;;;;5123617;28;20028;-80
2020/12/02 21:12:00;;;;;;;17.13;9.20;;;;;;;;;;5131149;28;20031;-80
2020/12/02 21:14:26;;;;;;;14.38;7.75;;;;;;;;;;5117956;28;20020;-80
2020/12/02 21:16:59;;;;;;;18.85;8.70;;;;;;;;;;5120109;28;20428;-79
2020/12/02 21:19:36;;;;;;;17.85;9.20;;;;;;;;;;5127052;28;20031;-80